createdAt,value
2022-10-30T00:01:22.477Z,99729.66
2022-10-30T00:03:50.759Z,99711.19
2022-10-30T00:06:19.133Z,99756.78
2022-10-30T00:08:47.083Z,99747.44
2022-10-30T00:11:15.259Z,99759.63
2022-10-30T00:13:44.889Z,99761.59
2022-10-30T00:16:12.725Z,99717.16
2022-10-30T00:18:42.607Z,99756.03
2022-10-30T00:21:14.156Z,99764.41
2022-10-30T00:23:52.095Z,99686.69
2022-10-30T00:26:22.663Z,99747.72
2022-10-30T00:28:56.218Z,99757.72
2022-10-30T00:31:24.484Z,99709.22
2022-10-30T00:33:54.420Z,99763.06
2022-10-30T00:36:23.594Z,99761.06
2022-10-30T00:38:51.581Z,99755.44
2022-10-30T00:41:24.351Z,99671.25
2022-10-30T00:43:53.242Z,99714.88
2022-10-30T00:46:33.376Z,99711.19
2022-10-30T00:49:14.175Z,99753.44
2022-10-30T00:51:49.872Z,99759.63
2022-10-30T00:54:19.874Z,99750.75
2022-10-30T00:56:49.510Z,99692.38
2022-10-30T00:59:26.548Z,99743.06
2022-10-30T01:01:55.543Z,99752.59
2022-10-30T01:04:29.001Z,99759.09
2022-10-30T01:07:00.267Z,99758.75
2022-10-30T01:09:28.228Z,99710.38
2022-10-30T01:11:58.304Z,99720.03
2022-10-30T01:14:26.721Z,99762.97
2022-10-30T01:17:40.565Z,99779.53
2022-10-30T01:21:00.053Z,99773.88
2022-10-30T01:23:54.706Z,99773.72
2022-10-30T01:27:10.479Z,99783.44
2022-10-30T01:30:03.270Z,99794.91
2022-10-30T01:32:49.704Z,99777.56
2022-10-30T01:35:23.986Z,99759.63
2022-10-30T01:38:12.687Z,99733.16
2022-10-30T01:40:40.530Z,99738.19
2022-10-30T01:43:09.998Z,99754.59
2022-10-30T01:45:43.896Z,99769.47
2022-10-30T01:48:36.651Z,99774.13
2022-10-30T01:51:42.837Z,99733.53
2022-10-30T01:54:41.317Z,99762.59
2022-10-30T01:57:11.934Z,99767.06
2022-10-30T01:59:56.485Z,99763.44
2022-10-30T02:02:25.463Z,99765.25
2022-10-30T02:04:55.805Z,99759.06
2022-10-30T02:07:23.726Z,99718.00
2022-10-30T02:09:54.484Z,99739.03
2022-10-30T02:12:23.823Z,99760.59
2022-10-30T02:14:59.337Z,99722.00
2022-10-30T02:17:28.784Z,99765.63
2022-10-30T02:19:56.674Z,99768.22
2022-10-30T02:22:25.272Z,99774.66
2022-10-30T02:24:53.953Z,99765.88
2022-10-30T02:27:25.106Z,99790.66
2022-10-30T02:29:56.247Z,99726.00
2022-10-30T02:32:24.159Z,99777.31
2022-10-30T02:34:52.047Z,99773.94
2022-10-30T02:37:20.180Z,99773.56
2022-10-30T02:39:48.035Z,99780.28
2022-10-30T02:42:16.010Z,99771.75
2022-10-30T02:44:44.059Z,99762.88
2022-10-30T02:47:11.942Z,99789.03
2022-10-30T02:49:39.810Z,99784.00
2022-10-30T02:52:09.491Z,99787.66
2022-10-30T02:54:37.768Z,99779.09
2022-10-30T02:57:05.655Z,99776.91
2022-10-30T02:59:33.859Z,99767.81
2022-10-30T03:02:01.892Z,99775.25
2022-10-30T03:04:29.900Z,99767.66
2022-10-30T03:06:57.997Z,99764.03
2022-10-30T03:09:25.801Z,99795.34
2022-10-30T03:11:53.655Z,99783.66
2022-10-30T03:14:24.146Z,99778.88
2022-10-30T03:16:52.686Z,99786.72
2022-10-30T03:19:20.593Z,99784.91
2022-10-30T03:21:49.244Z,99768.28
2022-10-30T03:24:17.138Z,99775.50
2022-10-30T03:26:47.259Z,99795.28
2022-10-30T03:29:15.406Z,99783.81
2022-10-30T03:31:45.002Z,99797.63
2022-10-30T03:34:20.207Z,99787.13
2022-10-30T03:36:48.104Z,99816.41
2022-10-30T03:39:16.359Z,99798.56
2022-10-30T03:41:46.718Z,99809.78
2022-10-30T03:44:14.697Z,99751.97
2022-10-30T03:46:42.573Z,99798.28
2022-10-30T03:49:30.077Z,99785.38
2022-10-30T03:51:58.890Z,99795.78
2022-10-30T03:54:27.636Z,99797.97
2022-10-30T03:56:55.637Z,99786.44
2022-10-30T03:59:26.680Z,99782.81
2022-10-30T04:02:14.030Z,99790.97
2022-10-30T04:04:42.940Z,99789.28
2022-10-30T04:07:10.814Z,99800.66
2022-10-30T04:09:39.982Z,99792.63
2022-10-30T04:12:08.154Z,99784.25
2022-10-30T04:14:35.950Z,99786.16
2022-10-30T04:17:06.627Z,99750.38
2022-10-30T04:19:34.515Z,99768.53
2022-10-30T04:22:02.374Z,99792.00
2022-10-30T04:24:30.517Z,99790.03
2022-10-30T04:26:59.424Z,99791.03
2022-10-30T04:29:27.304Z,99770.28
2022-10-30T04:31:55.399Z,99786.56
2022-10-30T04:34:23.832Z,99787.38
2022-10-30T04:36:51.940Z,99785.56
2022-10-30T04:39:20.351Z,99789.88
2022-10-30T04:41:51.454Z,99785.41
2022-10-30T04:44:26.430Z,99779.38
2022-10-30T04:46:56.255Z,99782.72
2022-10-30T04:49:25.266Z,99770.97
2022-10-30T04:51:53.479Z,99780.53
2022-10-30T04:54:22.543Z,99784.53
2022-10-30T04:56:50.369Z,99786.09
2022-10-30T04:59:18.464Z,99734.75
2022-10-30T05:01:46.653Z,99751.06
2022-10-30T05:04:14.574Z,99770.75
2022-10-30T05:06:43.260Z,99774.94
2022-10-30T05:09:11.153Z,99774.78
2022-10-30T05:11:40.985Z,99772.28
2022-10-30T05:14:10.394Z,99785.34
2022-10-30T05:16:39.023Z,99782.56
2022-10-30T05:19:08.215Z,99771.44
2022-10-30T05:21:36.768Z,99766.53
2022-10-30T05:24:06.594Z,99803.88
2022-10-30T05:26:49.331Z,99818.72
2022-10-30T05:29:17.724Z,99819.41
2022-10-30T05:31:46.171Z,99813.38
2022-10-30T05:34:35.294Z,99776.16
2022-10-30T05:37:04.468Z,99785.72
2022-10-30T05:39:32.484Z,99742.91
2022-10-30T05:42:01.540Z,99819.94
2022-10-30T05:44:59.799Z,99693.16
2022-10-30T05:47:29.649Z,99829.50
2022-10-30T05:50:00.633Z,99796.22
2022-10-30T05:52:29.670Z,99835.50
2022-10-30T05:55:01.923Z,99843.91
2022-10-30T05:57:48.509Z,99842.06
2022-10-30T06:00:17.740Z,99849.66
2022-10-30T06:02:45.749Z,99844.16
2022-10-30T06:05:16.805Z,99836.75
2022-10-30T06:07:45.192Z,99848.19
2022-10-30T06:10:13.312Z,99837.13
2022-10-30T06:13:00.123Z,99844.53
2022-10-30T06:15:48.981Z,99851.53
2022-10-30T06:18:26.492Z,99849.03
2022-10-30T06:20:56.287Z,99795.16
2022-10-30T06:23:49.435Z,99762.38
2022-10-30T06:26:30.073Z,99837.06
2022-10-30T06:29:11.858Z,99835.19
2022-10-30T06:31:42.770Z,99832.69
2022-10-30T06:34:10.978Z,99832.53
2022-10-30T06:36:41.786Z,99786.25
2022-10-30T06:39:09.721Z,99842.63
2022-10-30T06:42:09.504Z,99845.28
2022-10-30T06:44:50.088Z,99847.03
2022-10-30T06:47:18.557Z,99764.03
2022-10-30T06:49:46.475Z,99847.63
2022-10-30T06:52:14.330Z,99824.59
2022-10-30T06:54:42.909Z,99836.19
2022-10-30T06:57:30.894Z,99778.56
2022-10-30T07:00:19.543Z,99842.88
2022-10-30T07:03:20.252Z,99855.56
2022-10-30T07:05:48.691Z,99857.38
2022-10-30T07:08:17.185Z,99857.53
2022-10-30T07:10:45.584Z,99863.25
2022-10-30T07:13:38.213Z,99837.28
2022-10-30T07:16:31.515Z,99839.78
2022-10-30T07:19:03.670Z,99850.66
2022-10-30T07:21:34.817Z,99852.19
2022-10-30T07:24:09.955Z,99852.31
2022-10-30T07:27:00.512Z,99819.97
2022-10-30T07:29:55.501Z,99828.53
2022-10-30T07:32:26.599Z,99846.41
2022-10-30T07:35:23.132Z,99846.41
2022-10-30T07:38:20.203Z,99851.25
2022-10-30T07:40:59.292Z,99844.78
2022-10-30T07:43:45.808Z,99814.38
2022-10-30T07:46:42.673Z,99837.28
2022-10-30T07:49:35.447Z,99828.13
2022-10-30T07:52:09.726Z,99832.00
2022-10-30T07:54:39.713Z,99825.69
2022-10-30T07:57:30.792Z,99830.56
2022-10-30T08:00:18.204Z,99797.94
2022-10-30T08:03:00.048Z,99819.66
2022-10-30T08:05:48.399Z,99813.84
2022-10-30T08:08:29.837Z,99813.38
2022-10-30T08:11:15.977Z,99798.50
2022-10-30T08:13:45.625Z,99803.03
2022-10-30T08:16:13.646Z,99794.00
2022-10-30T08:18:43.513Z,99806.78
2022-10-30T08:21:12.733Z,99811.97
2022-10-30T08:23:52.585Z,99774.91
2022-10-30T08:26:23.124Z,99754.81
2022-10-30T08:28:51.024Z,99803.44
2022-10-30T08:31:18.934Z,99812.47
2022-10-30T08:34:11.058Z,99815.16
2022-10-30T08:36:52.289Z,99812.34
2022-10-30T08:39:21.326Z,99804.13
2022-10-30T08:42:02.061Z,99799.78
2022-10-30T08:44:41.848Z,99796.91
2022-10-30T08:47:28.924Z,99797.88
2022-10-30T08:49:57.775Z,99795.97
2022-10-30T08:52:29.259Z,99781.47
2022-10-30T08:54:57.972Z,99781.28
2022-10-30T08:57:28.271Z,99767.91
2022-10-30T08:59:58.550Z,99761.75
2022-10-30T09:02:49.378Z,99759.84
2022-10-30T09:05:43.326Z,99771.03
2022-10-30T09:08:31.538Z,99769.75
2022-10-30T09:11:18.113Z,99776.78
2022-10-30T09:13:46.158Z,99737.25
2022-10-30T09:16:14.176Z,99766.03
2022-10-30T09:18:42.587Z,99761.69
2022-10-30T09:21:11.167Z,99716.44
2022-10-30T09:23:44.765Z,99758.59
2022-10-30T09:26:32.838Z,99760.91
2022-10-30T09:29:24.256Z,99738.25
2022-10-30T09:32:21.774Z,99754.91
2022-10-30T09:35:02.497Z,99699.28
2022-10-30T09:37:39.653Z,99622.75
2022-10-30T09:40:52.004Z,99724.22
2022-10-30T09:43:55.629Z,99713.38
2022-10-30T09:46:58.777Z,99706.94
2022-10-30T09:49:42.166Z,99714.28
2022-10-30T09:52:35.589Z,99710.78
2022-10-30T09:55:40.781Z,99709.88
2022-10-30T09:58:38.403Z,99699.66
2022-10-30T10:01:20.545Z,99700.81
2022-10-30T10:04:12.661Z,99682.84
2022-10-30T10:06:48.280Z,99645.50
2022-10-30T10:09:27.374Z,99632.72
2022-10-30T10:12:47.225Z,99675.88
2022-10-30T10:15:20.073Z,99676.91
2022-10-30T10:17:48.490Z,99676.94
2022-10-30T10:20:35.819Z,99678.25
2022-10-30T10:23:27.285Z,99682.66
2022-10-30T10:25:55.453Z,99672.09
2022-10-30T10:28:57.451Z,99655.03
2022-10-30T10:31:55.739Z,99631.31
2022-10-30T10:34:48.338Z,99643.22
2022-10-30T10:37:25.020Z,99638.25
2022-10-30T10:40:12.658Z,99641.50
2022-10-30T10:42:58.428Z,99645.50
2022-10-30T10:46:06.766Z,99655.34
2022-10-30T10:49:12.540Z,99636.16
2022-10-30T10:51:48.647Z,99591.91
2022-10-30T10:54:28.020Z,99537.00
2022-10-30T10:56:56.995Z,99628.81
2022-10-30T10:59:45.957Z,99618.59
2022-10-30T11:02:35.918Z,99616.66
2022-10-30T11:05:21.843Z,99575.66
2022-10-30T11:07:51.127Z,99615.47
2022-10-30T11:10:20.890Z,99614.59
2022-10-30T11:12:48.929Z,99595.34
2022-10-30T11:15:50.619Z,99603.59
2022-10-30T11:18:18.463Z,99600.31
2022-10-30T11:21:05.144Z,99588.66
2022-10-30T11:23:41.654Z,99605.44
2022-10-30T11:26:18.829Z,99606.53
2022-10-30T11:29:01.101Z,99607.47
2022-10-30T11:31:35.525Z,99567.56
2022-10-30T11:34:18.381Z,99595.91
2022-10-30T11:36:54.629Z,99579.94
2022-10-30T11:39:30.861Z,99593.13
2022-10-30T11:42:19.389Z,99588.56
2022-10-30T11:44:51.953Z,99581.66
2022-10-30T11:47:31.902Z,99546.53
2022-10-30T11:50:15.719Z,99579.84
2022-10-30T11:52:45.299Z,99553.34
2022-10-30T11:55:28.353Z,99586.03
2022-10-30T11:57:59.413Z,99593.34
2022-10-30T12:00:32.012Z,99553.13
2022-10-30T12:03:01.556Z,99591.59
2022-10-30T12:05:36.915Z,99548.09
2022-10-30T12:08:19.840Z,99553.16
2022-10-30T12:11:00.930Z,99593.56
2022-10-30T12:13:39.590Z,99590.06
2022-10-30T12:16:18.121Z,99591.41
2022-10-30T12:19:02.224Z,99597.97
2022-10-30T12:21:39.234Z,99597.44
2022-10-30T12:24:20.370Z,99561.31
2022-10-30T12:26:53.571Z,99600.94
2022-10-30T12:29:41.882Z,99547.88
2022-10-30T12:32:21.743Z,99597.75
2022-10-30T12:35:09.916Z,99602.22
2022-10-30T12:37:43.747Z,99609.88
2022-10-30T12:40:26.058Z,99591.16
2022-10-30T12:43:24.866Z,99618.63
2022-10-30T12:46:36.263Z,99616.47
2022-10-30T12:49:41.036Z,99614.50
2022-10-30T12:52:20.651Z,99612.44
2022-10-30T12:55:34.424Z,99625.19
2022-10-30T12:58:19.187Z,99630.25
2022-10-30T13:01:18.102Z,99620.84
2022-10-30T13:04:05.499Z,99614.13
2022-10-30T13:06:42.402Z,99624.22
2022-10-30T13:09:32.790Z,99617.38
2022-10-30T13:12:14.515Z,99612.72
2022-10-30T13:14:57.868Z,99577.06
2022-10-30T13:17:25.852Z,99570.28
2022-10-30T13:19:54.473Z,99612.19
2022-10-30T13:22:52.462Z,99605.72
2022-10-30T13:25:43.102Z,99610.13
2022-10-30T13:28:18.814Z,99579.31
2022-10-30T13:31:21.863Z,99606.03
2022-10-30T13:33:57.837Z,99608.63
2022-10-30T13:37:05.837Z,99609.09
2022-10-30T13:40:12.262Z,99611.81
2022-10-30T13:43:25.188Z,99592.75
2022-10-30T13:46:31.706Z,99595.63
2022-10-30T13:49:24.530Z,99598.84
2022-10-30T13:52:11.767Z,99618.09
2022-10-30T13:54:49.299Z,99594.16
2022-10-30T13:57:32.210Z,99598.91
2022-10-30T14:00:35.579Z,99519.03
2022-10-30T14:03:32.179Z,99616.66
2022-10-30T14:06:44.862Z,99616.19
2022-10-30T14:09:54.239Z,99612.97
2022-10-30T14:12:47.794Z,99620.13
2022-10-30T14:15:32.940Z,99616.75
2022-10-30T14:18:26.503Z,99620.50
2022-10-30T14:21:20.316Z,99623.41
2022-10-30T14:24:01.884Z,99619.66
2022-10-30T14:26:30.195Z,99611.16
2022-10-30T14:28:58.040Z,99606.44
2022-10-30T14:31:36.954Z,99585.50
2022-10-30T14:34:05.236Z,99614.69
2022-10-30T14:36:39.765Z,99611.69
2022-10-30T14:39:13.174Z,99614.13
2022-10-30T14:42:11.155Z,99619.38
2022-10-30T14:44:47.837Z,99618.91
2022-10-30T14:47:27.611Z,99615.22
2022-10-30T14:50:27.952Z,99589.66
2022-10-30T14:53:23.015Z,99627.97
2022-10-30T14:56:39.924Z,99630.81
2022-10-30T14:59:34.005Z,99632.97
2022-10-30T15:02:14.043Z,99631.31
2022-10-30T15:05:15.355Z,99605.50
2022-10-30T15:07:56.394Z,99628.09
2022-10-30T15:10:36.300Z,99641.09
2022-10-30T15:13:21.877Z,99617.94
2022-10-30T15:16:06.028Z,99638.16
2022-10-30T15:18:34.876Z,99636.13
2022-10-30T15:21:08.540Z,99630.06
2022-10-30T15:23:37.565Z,99625.69
2022-10-30T15:26:19.745Z,99636.72
2022-10-30T15:28:51.984Z,99638.53
2022-10-30T15:31:25.592Z,99641.84
2022-10-30T15:33:55.670Z,99614.84
2022-10-30T15:36:40.776Z,99597.34
2022-10-30T15:39:16.240Z,99651.88
2022-10-30T15:41:58.468Z,99641.47
2022-10-30T15:44:34.385Z,99635.25
2022-10-30T15:47:05.487Z,99638.06
2022-10-30T15:49:41.581Z,99634.72
2022-10-30T15:52:25.454Z,99643.53
2022-10-30T15:55:09.585Z,99643.47
2022-10-30T15:58:02.836Z,99559.59
2022-10-30T16:00:36.915Z,99594.44
2022-10-30T16:03:18.429Z,99650.66
2022-10-30T16:05:46.872Z,99583.53
2022-10-30T16:08:25.266Z,99642.19
2022-10-30T16:10:55.271Z,99559.06
2022-10-30T16:13:30.356Z,99607.00
2022-10-30T16:16:00.952Z,99645.53
2022-10-30T16:18:35.944Z,99652.94
2022-10-30T16:21:09.992Z,99651.25
2022-10-30T16:23:41.685Z,99577.50
2022-10-30T16:26:27.046Z,99664.97
2022-10-30T16:28:55.012Z,99659.09
2022-10-30T16:31:24.811Z,99599.63
2022-10-30T16:33:53.384Z,99655.91
2022-10-30T16:36:21.455Z,99668.50
2022-10-30T16:38:50.124Z,99662.41
2022-10-30T16:41:24.117Z,99665.16
2022-10-30T16:44:13.240Z,99664.84
2022-10-30T16:46:58.340Z,99670.78
2022-10-30T16:49:35.041Z,99662.31
2022-10-30T16:52:06.846Z,99656.59
2022-10-30T16:54:41.298Z,99663.06
2022-10-30T16:57:26.455Z,99666.56
2022-10-30T16:59:56.036Z,99664.22
2022-10-30T17:02:28.551Z,99638.22
2022-10-30T17:05:10.445Z,99688.50
2022-10-30T17:07:39.454Z,99681.47
2022-10-30T17:10:29.861Z,99686.34
2022-10-30T17:13:35.383Z,99565.13
2022-10-30T17:16:36.080Z,99678.25
2022-10-30T17:19:31.859Z,99684.97
2022-10-30T17:22:08.222Z,99682.19
2022-10-30T17:24:38.745Z,99676.78
2022-10-30T17:27:33.945Z,99674.34
2022-10-30T17:30:02.231Z,99645.44
2022-10-30T17:32:45.226Z,99680.03
2022-10-30T17:35:19.608Z,99683.53
2022-10-30T17:37:48.348Z,99673.88
2022-10-30T17:40:18.225Z,99680.47
2022-10-30T17:42:50.558Z,99681.31
2022-10-30T17:45:19.120Z,99682.91
2022-10-30T17:47:47.144Z,99656.50
2022-10-30T17:50:15.476Z,99650.63
2022-10-30T17:52:43.674Z,99655.19
2022-10-30T17:55:30.007Z,99652.53
2022-10-30T17:57:58.178Z,99643.19
2022-10-30T18:00:26.277Z,99691.72
2022-10-30T18:02:54.511Z,99662.47
2022-10-30T18:05:26.222Z,99674.75
2022-10-30T18:07:54.418Z,99672.13
2022-10-30T18:10:22.542Z,99689.97
2022-10-30T18:12:50.560Z,99689.16
2022-10-30T18:15:30.087Z,99699.53
2022-10-30T18:17:58.666Z,99682.53
2022-10-30T18:20:28.461Z,99649.06
2022-10-30T18:22:57.130Z,99690.44
2022-10-30T18:25:28.101Z,99650.91
2022-10-30T18:27:56.418Z,99693.44
2022-10-30T18:30:24.952Z,99707.63
2022-10-30T18:32:52.957Z,99686.22
2022-10-30T18:35:39.441Z,99690.50
2022-10-30T18:38:08.486Z,99697.91
2022-10-30T18:40:36.529Z,99706.44
2022-10-30T18:43:04.474Z,99697.03
2022-10-30T18:45:37.525Z,99694.28
2022-10-30T18:48:05.915Z,99707.78
2022-10-30T18:50:35.560Z,99702.19
2022-10-30T18:53:10.268Z,99705.28
2022-10-30T18:55:41.310Z,99659.72
2022-10-30T18:58:09.745Z,99686.88
2022-10-30T19:01:10.024Z,99712.47
2022-10-30T19:03:28.148Z,99711.31
2022-10-30T19:05:57.188Z,99691.47
2022-10-30T19:08:25.069Z,99706.44
2022-10-30T19:10:57.006Z,99703.66
2022-10-30T19:13:25.591Z,99700.59
2022-10-30T19:16:02.381Z,99703.00
2022-10-30T19:18:32.629Z,99675.47
2022-10-30T19:21:06.478Z,99662.75
2022-10-30T19:23:35.610Z,99701.47
2022-10-30T19:26:04.426Z,99698.53
2022-10-30T19:28:33.186Z,99711.84
2022-10-30T19:31:01.398Z,99716.91
2022-10-30T19:33:29.376Z,99719.03
2022-10-30T19:36:07.021Z,99728.16
2022-10-30T19:38:35.066Z,99728.56
2022-10-30T19:41:03.112Z,99729.16
2022-10-30T19:43:31.370Z,99732.94
2022-10-30T19:45:59.488Z,99687.44
2022-10-30T19:51:15.857Z,99712.09
2022-10-30T19:53:43.938Z,99672.06
2022-10-30T19:56:15.221Z,99674.13
2022-10-30T19:58:43.419Z,99678.63
2022-10-30T20:01:14.137Z,99718.81
2022-10-30T20:03:42.441Z,99734.03
2022-10-30T20:06:13.737Z,99721.44
2022-10-30T20:08:42.740Z,99733.59
2022-10-30T20:11:10.764Z,99707.44
2022-10-30T20:13:47.104Z,99730.13
2022-10-30T20:16:19.505Z,99728.91
2022-10-30T20:18:47.976Z,99717.44
2022-10-30T20:21:20.848Z,99739.41
2022-10-30T20:23:55.336Z,99609.94
2022-10-30T20:26:28.575Z,99698.63
2022-10-30T20:28:58.155Z,99739.69
2022-10-30T20:31:46.729Z,99708.03
2022-10-30T20:34:17.461Z,99748.66
2022-10-30T20:36:45.461Z,99749.91
2022-10-30T20:39:17.592Z,99761.56
2022-10-30T20:41:57.239Z,99763.50
2022-10-30T20:44:25.119Z,99761.56
2022-10-30T20:46:53.090Z,99730.31
2022-10-30T20:49:26.541Z,99673.03
2022-10-30T20:51:54.613Z,99757.91
2022-10-30T20:54:22.993Z,99757.06
2022-10-30T20:56:51.040Z,99770.09
2022-10-30T20:59:23.951Z,99759.47
2022-10-30T21:01:56.138Z,99765.59
2022-10-30T21:04:28.593Z,99767.28
2022-10-30T21:06:57.768Z,99762.53
2022-10-30T21:09:57.859Z,99768.84
2022-10-30T21:12:32.111Z,99593.84
2022-10-30T21:15:31.480Z,99781.16
2022-10-30T21:18:06.951Z,99769.66
2022-10-30T21:20:36.602Z,99723.44
2022-10-30T21:23:06.394Z,99695.72
2022-10-30T21:25:34.754Z,99769.09
2022-10-30T21:28:03.288Z,99765.28
2022-10-30T21:30:31.619Z,99770.38
2022-10-30T21:33:00.217Z,99761.13
2022-10-30T21:35:28.548Z,99764.91
2022-10-30T21:37:56.455Z,99764.91
2022-10-30T21:40:24.392Z,99764.50
2022-10-30T21:42:52.322Z,99742.31
2022-10-30T21:45:20.186Z,99764.16
2022-10-30T21:47:52.428Z,99759.00
2022-10-30T21:50:20.728Z,99758.28
2022-10-30T21:52:48.525Z,99732.94
2022-10-30T21:55:18.083Z,99757.56
2022-10-30T21:57:46.048Z,99702.50
2022-10-30T22:00:15.331Z,99761.72
2022-10-30T22:02:43.337Z,99727.41
2022-10-30T22:05:11.418Z,99733.94
2022-10-30T22:07:39.363Z,99764.94
2022-10-30T22:10:08.658Z,99762.66
2022-10-30T22:12:36.764Z,99720.66
2022-10-30T22:15:05.880Z,99757.91
2022-10-30T22:17:35.161Z,99753.41
2022-10-30T22:20:03.733Z,99757.56
2022-10-30T22:22:31.647Z,99771.53
2022-10-30T22:24:59.595Z,99763.25
2022-10-30T22:27:27.647Z,99755.94
2022-10-30T22:29:55.952Z,99764.50
2022-10-30T22:32:27.331Z,99761.41
2022-10-30T22:34:56.773Z,99758.03
2022-10-30T22:37:25.495Z,99750.78
2022-10-30T22:39:53.637Z,99765.00
2022-10-30T22:42:22.918Z,99767.28
2022-10-30T22:44:51.014Z,99768.25
2022-10-30T22:47:18.955Z,99769.09
2022-10-30T22:49:46.893Z,99751.13
2022-10-30T22:52:14.812Z,99773.53
2022-10-30T22:54:42.835Z,99769.88
2022-10-30T22:57:10.940Z,99775.47
2022-10-30T22:59:38.994Z,99786.09
2022-10-30T23:02:07.161Z,99774.16
2022-10-30T23:04:35.438Z,99747.47
2022-10-30T23:07:03.356Z,99777.28
2022-10-30T23:09:31.449Z,99779.94
2022-10-30T23:12:00.079Z,99770.09
2022-10-30T23:14:28.105Z,99780.94
2022-10-30T23:16:55.961Z,99781.97
2022-10-30T23:19:29.287Z,99777.75
2022-10-30T23:21:59.169Z,99743.38
2022-10-30T23:24:27.699Z,99744.81
2022-10-30T23:26:55.754Z,99786.28
2022-10-30T23:29:23.633Z,99783.06
2022-10-30T23:31:51.636Z,99779.69
2022-10-30T23:34:19.826Z,99772.44
2022-10-30T23:36:47.841Z,99755.03
2022-10-30T23:39:17.876Z,99758.53
2022-10-30T23:41:46.607Z,99779.63
2022-10-30T23:44:16.212Z,99763.38
2022-10-30T23:46:44.471Z,99780.19
2022-10-30T23:49:12.749Z,99772.88
2022-10-30T23:51:55.483Z,99752.56
2022-10-30T23:54:23.627Z,99778.25
2022-10-30T23:56:51.547Z,99790.56
2022-10-30T23:59:19.753Z,99781.50
